Terminal Aerodrome Forecast
Issued by NWS Denver/Boulder, CO

Home | Current Version | Previous Version | Text Only | Print | Product List | Glossary On
Versions: 1 2 3 4 5 6 7 8 9 10 11 12 13 14 15 16 17 18 19 20 21 22 23 24 25 26 27 28 29 30 31 32 33 34 35 36 37 38 39 40 41 42 43 44 45 46 47 48 49 50
000
FTUS45 KBOU 251457 AAA
TAFDEN
TAF AMD
KDEN 251457Z 2515/2618 23009KT P6SM BKN080
     FM251700 28009KT P6SM SCT080 BKN200
     FM252000 30011KT P6SM FEW080 SCT140 BKN220
      TEMPO 2520/2523 33014G20KT
     FM260200 25008KT P6SM SCT220
     FM260600 21012KT P6SM SKC=

USA.gov is the U.S. government's official web portal to all federal, state and local government web resources and services.